Terminal Aerodrome Forecast
Issued by NWS

Home | Current Version | Previous Version | Graphics & Text | Print | Product List | Glossary On
Versions: 1 2 3 4 5 6 7 8 9 10 11 12 13 14 15 16 17 18 19
000
FTUS43 KMPX 252048 AAA
TAFAXN
TAF AMD
KAXN 252048Z 2521/2618 29016G26KT P6SM OVC035
     FM260200 29014KT P6SM BKN040
     FM260900 29015KT P6SM SKC
     FM261500 30020G33KT P6SM SKC=

USA.gov is the U.S. government's official web portal to all federal, state and local government web resources and services.